createdAt,value
2023-02-21T00:02:02.483Z,6.45
2023-02-21T00:04:48.126Z,8.63
2023-02-21T00:07:33.462Z,16.20
2023-02-21T00:10:18.625Z,7.90
2023-02-21T00:13:04.204Z,14.35
2023-02-21T00:15:49.848Z,11.90
2023-02-21T00:18:35.192Z,16.27
2023-02-21T00:21:20.876Z,12.02
2023-02-21T00:24:06.071Z,12.73
2023-02-21T00:26:51.407Z,17.48
2023-02-21T00:29:36.891Z,12.50
2023-02-21T00:32:22.829Z,8.50
2023-02-21T00:35:08.420Z,18.95
2023-02-21T00:37:54.420Z,10.50
2023-02-21T00:40:39.980Z,15.60
2023-02-21T00:43:25.369Z,15.07
2023-02-21T00:46:11.232Z,20.17
2023-02-21T00:48:56.689Z,17.88
2023-02-21T00:51:42.005Z,25.33
2023-02-21T00:54:27.323Z,41.58
2023-02-21T00:57:13.154Z,28.00
2023-02-21T00:59:58.971Z,12.45
2023-02-21T01:02:44.402Z,36.60
2023-02-21T01:05:29.869Z,8.20
2023-02-21T01:08:15.346Z,26.70
2023-02-21T01:11:00.541Z,13.55
2023-02-21T01:13:45.895Z,7.10
2023-02-21T01:16:31.121Z,7.10
2023-02-21T01:19:16.519Z,7.13
2023-02-21T01:22:02.191Z,6.47
2023-02-21T01:24:47.558Z,7.43
2023-02-21T01:27:33.419Z,6.85
2023-02-21T01:30:18.932Z,6.60
2023-02-21T01:33:04.394Z,6.40
2023-02-21T01:35:49.682Z,6.15
2023-02-21T01:38:34.975Z,5.95
2023-02-21T01:41:20.285Z,6.75
2023-02-21T01:44:22.730Z,6.97
2023-02-21T01:47:08.245Z,6.95
2023-02-21T01:49:58.848Z,6.57
2023-02-21T01:52:44.725Z,7.45
2023-02-21T01:55:31.129Z,6.53
2023-02-21T01:58:17.201Z,7.28
2023-02-21T02:01:03.965Z,8.02
2023-02-21T02:03:53.036Z,7.28
2023-02-21T02:06:38.679Z,7.43
2023-02-21T02:09:38.491Z,7.10
2023-02-21T02:12:56.244Z,7.40
2023-02-21T02:15:41.994Z,7.90
2023-02-21T02:19:05.543Z,8.00
2023-02-21T02:22:30.112Z,7.57
2023-02-21T02:25:14.887Z,7.35
2023-02-21T02:28:01.639Z,7.43
2023-02-21T02:30:45.946Z,8.15
2023-02-21T02:33:54.703Z,8.18
2023-02-21T02:36:30.603Z,7.57
2023-02-21T02:39:26.578Z,8.02
2023-02-21T02:42:22.371Z,7.93
2023-02-21T02:45:07.010Z,7.65
2023-02-21T02:47:38.791Z,8.25
2023-02-21T02:50:08.448Z,7.25
2023-02-21T02:52:39.488Z,8.45
2023-02-21T02:55:32.892Z,8.43
2023-02-21T02:58:00.820Z,8.30
2023-02-21T03:00:28.882Z,9.05
2023-02-21T03:03:38.151Z,8.13
2023-02-21T03:06:35.802Z,8.23
2023-02-21T03:09:15.320Z,9.98
2023-02-21T03:12:00.468Z,9.02
2023-02-21T03:14:37.768Z,8.60
2023-02-21T03:17:10.338Z,9.40
2023-02-21T03:19:41.969Z,8.82
2023-02-21T03:22:13.777Z,9.20
2023-02-21T03:24:44.189Z,9.02
2023-02-21T03:27:12.896Z,10.60
2023-02-21T03:29:40.949Z,10.30
2023-02-21T03:32:25.947Z,8.50
2023-02-21T03:34:53.272Z,9.93
2023-02-21T03:37:38.472Z,9.68
2023-02-21T03:40:28.932Z,11.43
2023-02-21T03:43:00.295Z,12.30
2023-02-21T03:45:27.511Z,8.90
2023-02-21T03:47:54.542Z,8.82
2023-02-21T03:50:21.715Z,9.25
2023-02-21T03:52:48.721Z,10.20
2023-02-21T03:55:16.531Z,9.98
2023-02-21T03:57:46.522Z,10.70
2023-02-21T04:00:15.030Z,10.68
2023-02-21T04:02:42.818Z,10.77
2023-02-21T04:05:09.865Z,10.18
2023-02-21T04:07:36.832Z,9.77
2023-02-21T04:10:04.223Z,10.55
2023-02-21T04:12:31.290Z,11.48
2023-02-21T04:14:58.756Z,12.20
2023-02-21T04:17:26.811Z,10.65
2023-02-21T04:19:53.786Z,11.43
2023-02-21T04:22:20.812Z,12.80
2023-02-21T04:24:48.127Z,12.55
2023-02-21T04:27:16.025Z,11.30
2023-02-21T04:29:43.131Z,13.05
2023-02-21T04:32:11.333Z,10.45
2023-02-21T04:34:38.708Z,11.25
2023-02-21T04:37:05.638Z,11.65
2023-02-21T04:39:32.643Z,11.00
2023-02-21T04:41:59.718Z,10.20
2023-02-21T04:44:26.542Z,12.68
2023-02-21T04:46:53.498Z,11.10
2023-02-21T04:49:20.421Z,12.45
2023-02-21T04:51:47.427Z,12.05
2023-02-21T04:54:14.430Z,11.77
2023-02-21T04:56:41.406Z,11.52
2023-02-21T04:59:08.628Z,11.35
2023-02-21T05:01:35.544Z,11.98
2023-02-21T05:04:02.944Z,12.48
2023-02-21T05:06:31.685Z,11.82
2023-02-21T05:08:59.611Z,11.77
2023-02-21T05:11:28.188Z,12.32
2023-02-21T05:13:55.179Z,13.73
2023-02-21T05:16:25.116Z,19.13
2023-02-21T05:18:52.541Z,20.17
2023-02-21T05:21:20.481Z,20.15
2023-02-21T05:23:57.047Z,21.83
2023-02-21T05:26:27.962Z,20.73
2023-02-21T05:28:57.970Z,17.80
2023-02-21T05:31:25.178Z,13.38
2023-02-21T05:33:52.226Z,14.43
2023-02-21T05:36:19.360Z,13.50
2023-02-21T05:38:50.666Z,15.80
2023-02-21T05:41:21.798Z,14.07
2023-02-21T05:43:50.592Z,14.52
2023-02-21T05:46:32.860Z,13.95
2023-02-21T05:49:03.833Z,13.98
2023-02-21T05:51:43.817Z,13.63
2023-02-21T05:54:17.545Z,15.20
2023-02-21T05:56:46.873Z,15.82
2023-02-21T05:59:17.079Z,14.73
2023-02-21T06:01:43.954Z,13.20
2023-02-21T06:04:11.121Z,13.27
2023-02-21T06:06:38.599Z,15.35
2023-02-21T06:09:07.055Z,14.07
2023-02-21T06:11:37.757Z,14.32
2023-02-21T06:14:17.888Z,13.43
2023-02-21T06:16:45.401Z,14.27
2023-02-21T06:19:14.219Z,15.15
2023-02-21T06:21:42.264Z,14.30
2023-02-21T06:24:11.159Z,15.20
2023-02-21T06:26:38.556Z,15.77
2023-02-21T06:29:06.115Z,14.88
2023-02-21T06:31:33.631Z,14.85
2023-02-21T06:34:00.820Z,20.13
2023-02-21T06:36:29.753Z,22.58
2023-02-21T06:38:58.213Z,23.13
2023-02-21T06:41:29.859Z,22.55
2023-02-21T06:43:58.659Z,20.88
2023-02-21T06:46:29.825Z,21.13
2023-02-21T06:48:57.577Z,17.30
2023-02-21T06:51:29.841Z,18.55
2023-02-21T06:53:58.664Z,19.00
2023-02-21T06:56:27.123Z,21.67
2023-02-21T06:58:54.191Z,23.33
2023-02-21T07:01:21.253Z,30.45
2023-02-21T07:03:48.454Z,28.13
2023-02-21T07:06:15.619Z,29.67
2023-02-21T07:08:42.683Z,26.98
2023-02-21T07:11:10.428Z,21.65
2023-02-21T07:13:37.612Z,22.00
2023-02-21T07:16:08.740Z,20.83
2023-02-21T07:18:35.717Z,20.42
2023-02-21T07:21:02.767Z,15.57
2023-02-21T07:23:29.673Z,18.45
2023-02-21T07:25:56.576Z,18.65
2023-02-21T07:28:23.612Z,19.55
2023-02-21T07:30:50.497Z,19.85
2023-02-21T07:33:17.590Z,17.63
2023-02-21T07:35:46.407Z,20.48
2023-02-21T07:38:30.937Z,21.50
2023-02-21T07:41:03.462Z,18.95
2023-02-21T07:43:31.525Z,18.20
2023-02-21T07:45:58.827Z,16.23
2023-02-21T07:48:26.180Z,20.80
2023-02-21T07:50:53.125Z,18.55
2023-02-21T07:53:20.346Z,19.70
2023-02-21T07:55:47.494Z,18.50
2023-02-21T07:58:14.562Z,18.52
2023-02-21T08:00:41.468Z,17.08
2023-02-21T08:03:09.777Z,17.52
2023-02-21T08:05:36.886Z,18.80
2023-02-21T08:08:03.858Z,17.73
2023-02-21T08:10:30.760Z,18.33
2023-02-21T08:12:58.108Z,18.27
2023-02-21T08:15:24.989Z,15.60
2023-02-21T08:17:52.146Z,14.88
2023-02-21T08:20:19.950Z,18.15
2023-02-21T08:22:47.277Z,13.80
2023-02-21T08:25:17.061Z,12.43
2023-02-21T08:27:45.004Z,13.18
2023-02-21T08:30:14.999Z,14.13
2023-02-21T08:32:42.424Z,14.85
2023-02-21T08:35:14.631Z,14.45
2023-02-21T08:37:47.928Z,13.32
2023-02-21T08:40:16.525Z,13.93
2023-02-21T08:42:43.412Z,14.32
2023-02-21T08:45:17.762Z,14.75
2023-02-21T08:47:45.788Z,14.15
2023-02-21T08:50:13.574Z,14.05
2023-02-21T08:52:40.481Z,14.32
2023-02-21T08:55:08.685Z,16.83
2023-02-21T08:57:35.735Z,15.82
2023-02-21T09:00:06.184Z,15.93
2023-02-21T09:02:33.211Z,17.02
2023-02-21T09:05:00.251Z,15.38
2023-02-21T09:07:28.755Z,15.23
2023-02-21T09:09:55.677Z,16.90
2023-02-21T09:12:22.590Z,19.27
2023-02-21T09:14:49.496Z,19.13
2023-02-21T09:17:16.691Z,17.17
2023-02-21T09:19:44.877Z,18.13
2023-02-21T09:22:12.075Z,18.83
2023-02-21T09:24:39.044Z,18.45
2023-02-21T09:27:06.778Z,18.42
2023-02-21T09:29:46.067Z,17.48
2023-02-21T09:32:14.233Z,17.33
2023-02-21T09:34:42.520Z,17.45
2023-02-21T09:37:09.446Z,20.02
2023-02-21T09:39:39.411Z,19.55
2023-02-21T09:42:06.693Z,18.23
2023-02-21T09:44:34.860Z,19.02
2023-02-21T09:47:07.645Z,18.50
2023-02-21T09:49:40.061Z,17.50
2023-02-21T09:52:37.631Z,18.30
2023-02-21T09:55:26.324Z,17.85
2023-02-21T09:57:54.530Z,17.73
2023-02-21T10:00:45.406Z,17.65
2023-02-21T10:03:45.534Z,18.42
2023-02-21T10:06:47.829Z,16.63
2023-02-21T10:09:51.908Z,16.13
2023-02-21T10:12:56.915Z,15.18
2023-02-21T10:16:12.810Z,16.88
2023-02-21T10:19:20.950Z,15.85
2023-02-21T10:21:51.304Z,15.65
2023-02-21T10:24:24.786Z,15.40
2023-02-21T10:27:02.871Z,16.30
2023-02-21T10:29:56.678Z,13.48
2023-02-21T10:32:25.598Z,12.75
2023-02-21T10:34:55.040Z,12.20
2023-02-21T10:37:44.007Z,12.95
2023-02-21T10:40:35.787Z,14.02
2023-02-21T10:43:21.264Z,14.93
2023-02-21T10:46:27.427Z,22.20
2023-02-21T10:49:05.197Z,19.98
2023-02-21T10:51:34.943Z,17.65
2023-02-21T10:54:24.081Z,15.80
2023-02-21T10:56:54.099Z,13.15
2023-02-21T10:59:34.935Z,12.80
2023-02-21T11:02:33.819Z,13.10
2023-02-21T11:05:22.281Z,11.90
2023-02-21T11:08:09.843Z,12.57
2023-02-21T11:10:44.559Z,11.00
2023-02-21T11:13:18.077Z,10.07
2023-02-21T11:15:45.958Z,9.52
2023-02-21T11:18:23.264Z,8.35
2023-02-21T11:20:52.434Z,8.02
2023-02-21T11:23:31.563Z,8.00
2023-02-21T11:26:09.586Z,7.47
2023-02-21T11:28:45.257Z,6.78
2023-02-21T11:31:29.707Z,6.93
2023-02-21T11:34:06.854Z,9.70
2023-02-21T11:36:37.792Z,9.82
2023-02-21T11:39:29.732Z,10.90
2023-02-21T11:42:00.284Z,6.40
2023-02-21T11:44:35.574Z,6.65
2023-02-21T11:47:37.416Z,7.38
2023-02-21T11:50:09.070Z,8.65
2023-02-21T11:52:56.943Z,6.70
2023-02-21T11:55:26.627Z,8.20
2023-02-21T11:58:37.849Z,5.95
2023-02-21T12:01:13.583Z,6.35
2023-02-21T12:04:04.802Z,5.60
2023-02-21T12:07:13.953Z,7.03
2023-02-21T12:09:52.706Z,6.25
2023-02-21T12:12:54.401Z,4.40
2023-02-21T12:15:31.192Z,6.45
2023-02-21T12:18:33.616Z,5.70
2023-02-21T12:21:53.011Z,3.45
2023-02-21T12:24:53.709Z,3.75
2023-02-21T12:27:48.401Z,4.25
2023-02-21T12:30:44.226Z,6.35
2023-02-21T12:33:43.501Z,9.10
2023-02-21T12:36:38.474Z,6.68
2023-02-21T12:39:18.314Z,3.58
2023-02-21T12:42:02.788Z,3.30
2023-02-21T12:44:57.760Z,3.65
2023-02-21T12:47:34.399Z,2.63
2023-02-21T12:50:33.652Z,2.10
2023-02-21T12:53:16.680Z,5.10
2023-02-21T12:55:52.128Z,4.45
2023-02-21T12:58:35.354Z,6.97
2023-02-21T13:01:10.798Z,3.20
2023-02-21T13:04:27.787Z,2.33
2023-02-21T13:07:25.580Z,3.28
2023-02-21T13:10:21.259Z,2.03
2023-02-21T13:13:20.006Z,3.15
2023-02-21T13:15:49.513Z,2.00
2023-02-21T13:18:27.884Z,5.47
2023-02-21T13:21:13.901Z,5.22
2023-02-21T13:24:47.600Z,2.30
2023-02-21T13:28:05.917Z,2.95
2023-02-21T13:30:32.983Z,2.60
2023-02-21T13:33:01.541Z,2.60
2023-02-21T13:35:39.715Z,2.20
2023-02-21T13:38:10.958Z,2.08
2023-02-21T13:40:51.178Z,1.95
2023-02-21T13:43:29.151Z,1.80
2023-02-21T13:46:31.493Z,1.63
2023-02-21T13:49:47.692Z,1.48
2023-02-21T13:52:20.174Z,1.02
2023-02-21T13:55:15.703Z,1.30
2023-02-21T13:57:58.616Z,1.50
2023-02-21T14:00:25.635Z,1.45
2023-02-21T14:03:05.569Z,1.23
2023-02-21T14:06:01.907Z,1.50
2023-02-21T14:08:46.456Z,1.30
2023-02-21T14:11:25.221Z,1.20
2023-02-21T14:14:00.148Z,1.40
2023-02-21T14:16:37.208Z,1.10
2023-02-21T14:19:20.727Z,0.80
2023-02-21T14:21:55.671Z,1.50
2023-02-21T14:24:34.704Z,1.58
2023-02-21T14:27:12.792Z,1.08
2023-02-21T14:30:02.377Z,1.10
2023-02-21T14:32:51.400Z,1.23
2023-02-21T14:35:46.481Z,1.05
2023-02-21T14:38:23.918Z,0.98
2023-02-21T14:41:19.152Z,1.08
2023-02-21T14:44:02.715Z,1.20
2023-02-21T14:47:20.085Z,1.40
2023-02-21T14:50:20.260Z,1.48
2023-02-21T14:53:17.868Z,1.35
2023-02-21T14:56:10.457Z,0.95
2023-02-21T14:59:14.840Z,1.35
2023-02-21T15:02:15.606Z,2.65
2023-02-21T15:05:32.058Z,1.70
2023-02-21T15:08:14.923Z,1.40
2023-02-21T15:10:45.594Z,1.70
2023-02-21T15:13:33.847Z,1.37
2023-02-21T15:16:09.140Z,2.35
2023-02-21T15:18:39.360Z,2.10
2023-02-21T15:21:16.811Z,1.55
2023-02-21T15:23:51.094Z,1.20
2023-02-21T15:26:31.467Z,1.25
2023-02-21T15:29:13.028Z,1.15
2023-02-21T15:31:49.408Z,1.20
2023-02-21T15:34:27.054Z,1.33
2023-02-21T15:37:04.731Z,1.65
2023-02-21T15:39:38.678Z,1.48
2023-02-21T15:42:10.508Z,1.60
2023-02-21T15:44:51.355Z,1.40
2023-02-21T15:47:24.081Z,1.27
2023-02-21T15:50:07.632Z,1.33
2023-02-21T15:52:39.381Z,1.95
2023-02-21T15:55:23.985Z,1.67
2023-02-21T15:58:06.231Z,2.30
2023-02-21T16:00:42.847Z,3.28
2023-02-21T16:03:47.003Z,2.17
2023-02-21T16:06:25.350Z,4.60
2023-02-21T16:09:13.042Z,8.45
2023-02-21T16:12:12.146Z,4.95
2023-02-21T16:14:49.422Z,5.07
2023-02-21T16:17:21.812Z,3.78
2023-02-21T16:19:54.250Z,3.33
2023-02-21T16:25:26.372Z,6.25
2023-02-21T16:28:01.093Z,10.73
2023-02-21T16:30:32.578Z,11.40
2023-02-21T16:33:05.590Z,8.88
2023-02-21T16:35:34.112Z,3.50
2023-02-21T16:38:02.263Z,7.30
2023-02-21T16:40:33.822Z,8.18
2023-02-21T16:43:03.215Z,7.68
2023-02-21T16:45:31.870Z,7.15
2023-02-21T16:48:03.090Z,6.97
2023-02-21T16:50:38.892Z,4.90
2023-02-21T16:53:06.624Z,4.82
2023-02-21T16:55:34.130Z,4.82
2023-02-21T16:58:09.122Z,5.78
2023-02-21T17:00:36.075Z,5.93
2023-02-21T17:03:03.055Z,5.55
2023-02-21T17:05:30.035Z,3.05
2023-02-21T17:07:59.867Z,2.85
2023-02-21T17:10:26.953Z,2.60
2023-02-21T17:12:54.129Z,1.88
2023-02-21T17:15:21.783Z,2.15
2023-02-21T17:17:53.559Z,2.72
2023-02-21T17:20:22.951Z,1.80
2023-02-21T17:22:51.462Z,1.90
2023-02-21T17:25:20.625Z,1.70
2023-02-21T17:27:48.503Z,1.70
2023-02-21T17:30:18.496Z,1.75
2023-02-21T17:32:47.063Z,1.55
2023-02-21T17:35:17.311Z,1.60
2023-02-21T17:37:44.635Z,1.27
2023-02-21T17:40:12.313Z,1.30
2023-02-21T17:42:40.061Z,1.55
2023-02-21T17:45:07.791Z,1.90
2023-02-21T17:47:35.555Z,1.98
2023-02-21T17:50:04.653Z,2.63
2023-02-21T17:52:32.565Z,2.33
2023-02-21T17:54:59.531Z,2.20
2023-02-21T17:57:26.602Z,1.75
2023-02-21T17:59:53.483Z,1.90
2023-02-21T18:02:20.967Z,1.88
2023-02-21T18:04:50.056Z,2.30
2023-02-21T18:07:17.070Z,2.63
2023-02-21T18:09:47.340Z,2.63
2023-02-21T18:12:14.288Z,4.63
2023-02-21T18:14:41.311Z,3.03
2023-02-21T18:17:08.386Z,2.33
2023-02-21T18:19:36.230Z,2.88
2023-02-21T18:22:06.210Z,3.78
2023-02-21T18:24:33.166Z,3.70
2023-02-21T18:27:00.034Z,4.40
2023-02-21T18:29:27.043Z,3.33
2023-02-21T18:31:54.702Z,3.15
2023-02-21T18:34:21.816Z,3.20
2023-02-21T18:39:36.050Z,3.50
2023-02-21T18:42:03.158Z,3.20
2023-02-21T18:44:32.085Z,4.28
2023-02-21T18:46:59.275Z,5.82
2023-02-21T18:49:27.066Z,6.93
2023-02-21T18:51:54.593Z,5.93
2023-02-21T18:54:21.626Z,6.10
2023-02-21T18:56:52.586Z,7.57
2023-02-21T18:59:22.707Z,10.80
2023-02-21T19:01:52.990Z,10.23
2023-02-21T19:04:20.729Z,11.73
2023-02-21T19:06:48.128Z,12.23
2023-02-21T19:09:15.070Z,11.88
2023-02-21T19:11:42.900Z,12.18
2023-02-21T19:14:09.931Z,14.57
2023-02-21T19:16:37.132Z,13.60
2023-02-21T19:19:05.233Z,15.18
2023-02-21T19:21:33.713Z,11.75
2023-02-21T19:24:02.955Z,10.35
2023-02-21T19:26:30.988Z,9.95
2023-02-21T19:28:58.471Z,10.95
2023-02-21T19:31:25.740Z,12.98
2023-02-21T19:33:52.692Z,11.52
2023-02-21T19:36:22.016Z,12.10
2023-02-21T19:38:50.074Z,13.68
2023-02-21T19:41:18.189Z,14.98
2023-02-21T19:43:45.326Z,14.43
2023-02-21T19:46:25.512Z,11.55
2023-02-21T19:48:53.742Z,11.63
2023-02-21T19:51:23.412Z,11.85
2023-02-21T19:53:50.364Z,10.13
2023-02-21T19:56:17.398Z,10.07
2023-02-21T19:58:45.382Z,11.45
2023-02-21T20:01:12.337Z,11.05
2023-02-21T20:03:40.883Z,11.73
2023-02-21T20:06:08.237Z,10.52
2023-02-21T20:08:35.217Z,11.75
2023-02-21T20:11:02.041Z,10.40
2023-02-21T20:13:29.063Z,12.65
2023-02-21T20:15:55.915Z,15.52
2023-02-21T20:18:22.885Z,16.15
2023-02-21T20:20:50.177Z,14.82
2023-02-21T20:23:18.107Z,13.82
2023-02-21T20:25:45.243Z,13.60
2023-02-21T20:28:12.129Z,11.45
2023-02-21T20:30:39.126Z,11.45
2023-02-21T20:33:06.950Z,11.32
2023-02-21T20:35:34.004Z,11.60
2023-02-21T20:38:05.238Z,10.32
2023-02-21T20:40:35.317Z,11.80
2023-02-21T20:43:02.712Z,11.00
2023-02-21T20:45:29.759Z,10.77
2023-02-21T20:47:56.740Z,11.23
2023-02-21T20:50:24.757Z,11.95
2023-02-21T20:52:52.242Z,10.82
2023-02-21T20:55:22.224Z,11.00
2023-02-21T20:57:49.679Z,11.43
2023-02-21T21:00:18.905Z,11.35
2023-02-21T21:02:46.327Z,11.27
2023-02-21T21:05:16.932Z,10.50
2023-02-21T21:07:45.381Z,11.57
2023-02-21T21:10:15.765Z,11.02
2023-02-21T21:12:43.848Z,10.55
2023-02-21T21:15:14.454Z,10.45
2023-02-21T21:17:42.688Z,11.25
2023-02-21T21:20:14.489Z,10.40
2023-02-21T21:22:42.118Z,9.80
2023-02-21T21:25:10.239Z,11.57
2023-02-21T21:27:37.761Z,11.07
2023-02-21T21:30:07.335Z,12.07
2023-02-21T21:32:34.963Z,16.23
2023-02-21T21:35:07.212Z,15.00
2023-02-21T21:37:35.919Z,15.77
2023-02-21T21:40:18.850Z,17.67
2023-02-21T21:42:49.863Z,15.77
2023-02-21T21:45:23.900Z,16.35
2023-02-21T21:47:54.757Z,17.95
2023-02-21T21:50:22.430Z,16.23
2023-02-21T21:52:58.709Z,16.98
2023-02-21T21:55:29.462Z,17.40
2023-02-21T21:57:59.450Z,16.00
2023-02-21T22:00:29.589Z,17.35
2023-02-21T22:03:02.042Z,17.95
2023-02-21T22:05:31.464Z,15.80
2023-02-21T22:07:59.653Z,16.35
2023-02-21T22:10:28.982Z,12.80
2023-02-21T22:13:00.035Z,13.07
2023-02-21T22:15:29.764Z,16.08
2023-02-21T22:18:02.104Z,15.38
2023-02-21T22:20:31.210Z,15.32
2023-02-21T22:22:58.806Z,14.70
2023-02-21T22:25:28.293Z,15.18
2023-02-21T22:27:55.325Z,15.57
2023-02-21T22:30:23.116Z,14.77
2023-02-21T22:32:50.993Z,15.02
2023-02-21T22:35:20.599Z,13.32
2023-02-21T22:37:51.581Z,12.63
2023-02-21T22:40:25.637Z,11.15
2023-02-21T22:43:01.471Z,10.80
2023-02-21T22:45:33.335Z,11.15
2023-02-21T22:48:03.911Z,11.40
2023-02-21T22:50:37.164Z,12.73
2023-02-21T22:53:08.460Z,12.95
2023-02-21T22:55:37.910Z,11.77
2023-02-21T22:58:09.598Z,16.42
2023-02-21T23:00:38.070Z,13.00
2023-02-21T23:03:14.705Z,14.40
2023-02-21T23:06:02.213Z,14.82
2023-02-21T23:08:29.767Z,13.45
2023-02-21T23:10:56.791Z,12.40
2023-02-21T23:13:24.775Z,11.25
2023-02-21T23:15:55.863Z,10.90
2023-02-21T23:18:24.027Z,11.18
2023-02-21T23:20:54.682Z,9.60
2023-02-21T23:23:27.850Z,11.13
2023-02-21T23:28:29.945Z,10.43
2023-02-21T23:30:58.135Z,9.38
2023-02-21T23:33:29.545Z,9.13
2023-02-21T23:35:58.297Z,9.95
2023-02-21T23:38:28.151Z,8.75
2023-02-21T23:40:59.024Z,9.70
2023-02-21T23:43:35.600Z,9.65
2023-02-21T23:46:06.772Z,9.70
2023-02-21T23:48:34.064Z,9.85
2023-02-21T23:51:00.961Z,9.30
2023-02-21T23:53:29.558Z,9.73
2023-02-21T23:56:00.353Z,9.50
2023-02-21T23:58:31.620Z,9.52
